• Join FlightAware (Why Join?)
  • Login
  • US Flag 
10:21AM EDT


 

Airport Tracker/Info


-or-


 

Live Flight TrackerFlight Track Log ✈ MTN8324 ✈ 30-Apr-2013 ✈ KEWR - KBUF

Flight Track Log - Related Links

Times and Time Zones

All times are in EDT time to prevent confusion due to time zone crossing. See the MTN8324 flight status page for this flight to view local times or setup timezone preferences in your user account.

Time Position Orientation Groundspeed Altitude Reporting Facility
EDT Latitude Longitude Course Direction KTS MPH feet Rate Location/Type
04:41AM 40.7500 -74.1500 342° North 179 206 2,300  Level New York TRACON
04:42AM 40.8000 -74.1667 346° North 190 219 3,900 1,620 Climbing New York TRACON
04:43AM 40.8500 -74.2000 333° Northwest 194 223 5,600 1,680 Climbing New York TRACON
04:44AM 40.9000 -74.2333 333° Northwest 200 230 7,300 1,500 Climbing New York TRACON
04:45AM 40.9333 -74.2667 323° Northwest 203 234 8,700 1,380 Climbing New York TRACON
04:46AM 41.1487 -74.3790 342° North  Level FlightAware Approximate
04:46AM 41.0186 -74.3242 333° Northwest 217 250 11,000  Level New York Center
04:47AM 41.0739 -74.3575 336° Northwest 212 244 12,000 480 Climbing New York Center
04:48AM 41.1247 -74.3931 332° Northwest 219 252 12,000  Level New York Center
04:49AM 41.1961 -74.4411 333° Northwest 248 285 12,000  Level New York Center
04:50AM 41.2553 -74.4831 332° Northwest 260 299 12,000  Level New York Center
04:51AM 41.3306 -74.5369 332° Northwest 265 305 12,000  Level New York Center
04:52AM 41.3917 -74.5789 333° Northwest 270 311 12,000 120 Level New York Center
04:53AM 41.4431 -74.6678 308° West 270 311 12,300 1,080 Climbing New York Center
04:54AM 41.4678 -74.7356 296° West 250 288 14,200 1,500 Climbing New York Center
04:55AM 41.4986 -74.8150 297° West 227 261 15,300 840 Climbing New York Center
04:56AM 41.5236 -74.8747 299° West 215 247 16,000 240 Climbing New York Center
04:57AM 41.5561 -74.9514 300° West 220 253 15,900 -60 Descending New York Center
04:58AM 41.5906 -75.0422 297° West 250 288 15,900  Level New York Center
04:59AM 41.6228 -75.1278 297° West 256 295 15,900  Level New York Center
05:00AM 41.6569 -75.2158 297° West 261 300 15,900  Level New York Center
05:01AM 41.6892 -75.2958 298° West 266 306 15,900  Level New York Center
05:02AM 41.7250 -75.3956 296° West 266 306 15,900  Level New York Center
05:03AM 41.7592 -75.4814 298° West 266 306 15,900  Level New York Center
05:04AM 41.7950 -75.5728 298° West 266 306 15,900  Level New York Center
05:05AM 41.8272 -75.6503 299° West 266 306 15,900  Level New York Center
05:06AM 41.8628 -75.7478 296° West 271 312 15,900  Level New York Center
05:07AM 41.8950 -75.8253 299° West 271 312 15,900  Level New York Center
05:08AM 41.9286 -75.9142 297° West 271 312 15,900  Level New York Center
05:09AM 41.9658 -76.0119 297° West 271 312 15,900  Level New York Center
05:11AM 42.0278 -76.1772 297° West 278 320 15,900 60 Level Cleveland Center
05:12AM 42.0603 -76.2644 297° West 278 320 16,100 60 Climbing Cleveland Center
05:13AM 42.0969 -76.3544 299° West 278 320 16,100  Level Cleveland Center
05:14AM 42.1314 -76.4444 297° West 278 320 16,100  Level Cleveland Center
05:15AM 42.1639 -76.5347 296° West 273 314 16,100  Level Cleveland Center
05:16AM 42.1983 -76.6225 298° West 273 314 16,100  Level Cleveland Center
05:17AM 42.2325 -76.7128 297° West 273 314 16,100  Level Cleveland Center
05:18AM 42.2669 -76.8033 297° West 273 314 16,100  Level Cleveland Center
05:19AM 42.2992 -76.8942 296° West 273 314 16,100  Level Cleveland Center
05:20AM 42.3356 -76.9931 296° West 273 314 16,100  Level Cleveland Center
05:21AM 42.3697 -77.0839 297° West 273 314 16,100  Level Cleveland Center
05:22AM 42.4014 -77.1750 295° West 273 314 16,100  Level Cleveland Center
05:23AM 42.4353 -77.2633 297° West 273 314 16,100  Level Cleveland Center
05:24AM 42.4669 -77.3517 296° West 273 314 16,100  Level Cleveland Center
05:25AM 42.5008 -77.4400 298° West 273 314 16,100 -240 Level Cleveland Center
05:26AM 42.5319 -77.5175 299° West 266 306 15,700 -720 Descending Cleveland Center
05:27AM 42.5639 -77.6147 294° West 276 318 14,700 -1,020 Descending Cleveland Center
05:28AM 42.5953 -77.7061 295° West 276 318 13,700 -1,200 Descending Cleveland Center
05:29AM 42.6308 -77.7978 298° West 271 312 12,400 -1,380 Descending Cleveland Center
05:30AM 42.6644 -77.8922 296° West 271 312 11,000 -720 Descending Cleveland Center
05:31AM 42.6956 -77.9786 296° West 271 312 11,000  Level Cleveland Center
05:32AM 42.7308 -78.0703 298° West 271 312 11,000  Level Cleveland Center
05:33AM 42.7742 -78.1478 307° West 265 305 11,000 -600 Level Cleveland Center
05:34AM 42.8158 -78.2425 301° West 271 312 9,800 -1,560 Descending Cleveland Center
05:35AM 42.8506 -78.3119 304° West 275 316 7,900 -2,100 Descending Cleveland Center
05:36AM 42.8936 -78.3842 309° West 240 276 5,600 -1,920 Descending Cleveland Center
05:37AM 42.9281 -78.4425 309° West 223 257 4,100 -840 Descending Cleveland Center
05:38AM 42.9625 -78.4981 310° West 198 228 4,000 -720 Descending Cleveland Center
05:39AM 42.9906 -78.5511 306° West 198 228 2,700 -600 Descending Cleveland Center
05:41AM 43.0000 -78.6500 277° West 149 171 2,300 -420 Descending Buffalo TRACON
05:42AM 42.9833 -78.6833 236° Southwest 106 122 1,600 -660 Descending Buffalo TRACON
05:43AM 42.9500 -78.7000 200° South 106 122 1,000 -600 Descending Buffalo TRACON
05:45AM 42.9333 -78.7167 248° West  Level FlightAware Approximate